createdAt,value
2019-04-24T00:00:04.715Z,5.50
2019-04-24T00:02:44.509Z,5.93
2019-04-24T00:05:22.623Z,5.83
2019-04-24T00:07:35.683Z,6.07
2019-04-24T00:10:18.251Z,5.93
2019-04-24T00:12:54.690Z,5.87
2019-04-24T00:23:14.232Z,5.13
2019-04-24T00:25:40.730Z,5.13
2019-04-24T00:31:02.268Z,5.67
2019-04-24T00:36:21.974Z,5.80
2019-04-24T00:38:30.047Z,6.00
2019-04-24T00:41:04.991Z,6.10
2019-04-24T00:43:39.065Z,6.30
2019-04-24T00:46:09.233Z,5.90
2019-04-24T00:48:30.750Z,6.03
2019-04-24T00:51:22.595Z,5.67
2019-04-24T00:56:19.661Z,6.37
2019-04-24T00:58:34.153Z,5.00
2019-04-24T01:01:46.300Z,5.20
2019-04-24T01:04:54.482Z,4.90
2019-04-24T01:10:12.173Z,4.87
2019-04-24T01:12:38.821Z,4.67
2019-04-24T01:15:22.192Z,4.33
2019-04-24T01:22:54.197Z,4.33
2019-04-24T01:25:23.526Z,4.20
2019-04-24T01:27:47.206Z,5.10
2019-04-24T01:30:37.863Z,4.20
2019-04-24T01:32:58.682Z,4.73
2019-04-24T01:35:17.244Z,4.40
2019-04-24T01:38:08.366Z,4.90
2019-04-24T01:40:34.229Z,4.50
2019-04-24T01:43:13.522Z,4.03
2019-04-24T01:45:54.753Z,4.70
2019-04-24T01:50:34.258Z,4.20
2019-04-24T01:55:26.022Z,4.43
2019-04-24T01:58:13.800Z,4.13
2019-04-24T02:01:07.470Z,4.90
2019-04-24T02:03:11.717Z,4.30
2019-04-24T02:05:56.696Z,4.40
2019-04-24T02:08:42.632Z,4.40
2019-04-24T02:13:38.091Z,4.40
2019-04-24T02:18:46.480Z,3.93
2019-04-24T02:21:23.343Z,4.00
2019-04-24T02:23:56.980Z,5.53
2019-04-24T02:26:22.085Z,4.00
2019-04-24T02:28:58.067Z,4.53
2019-04-24T02:37:23.307Z,4.00
2019-04-24T02:40:00.057Z,3.70
2019-04-24T02:55:13.506Z,3.20
2019-04-24T03:05:37.938Z,3.33
2019-04-24T03:10:39.046Z,3.60
2019-04-24T03:13:25.847Z,3.80
2019-04-24T03:15:59.348Z,3.83
2019-04-24T03:18:37.084Z,3.53
2019-04-24T03:23:32.307Z,4.13
2019-04-24T03:32:04.388Z,3.60
2019-04-24T03:33:59.337Z,3.70
2019-04-24T03:38:53.014Z,3.83
2019-04-24T03:54:10.683Z,4.00
2019-04-24T04:07:12.239Z,3.33
2019-04-24T04:09:50.242Z,3.40
2019-04-24T04:14:45.556Z,3.00
2019-04-24T04:17:38.355Z,3.47
2019-04-24T04:22:46.342Z,3.43
2019-04-24T04:24:59.106Z,4.00
2019-04-24T04:27:42.512Z,3.63
2019-04-24T04:30:41.032Z,3.53
2019-04-24T04:35:50.801Z,3.87
2019-04-24T04:38:27.615Z,3.73
2019-04-24T04:41:13.342Z,3.63
2019-04-24T04:51:22.469Z,4.23
2019-04-24T04:53:48.650Z,4.50
2019-04-24T05:01:49.733Z,3.90
2019-04-24T05:04:14.031Z,4.43
2019-04-24T05:09:40.689Z,3.80
2019-04-24T05:14:45.381Z,4.07
2019-04-24T05:29:53.113Z,3.30
2019-04-24T05:35:12.705Z,3.63
2019-04-24T05:40:37.804Z,2.70
2019-04-24T05:45:41.519Z,3.50
2019-04-24T05:48:12.081Z,3.83
2019-04-24T05:51:24.879Z,2.93
2019-04-24T05:59:05.942Z,2.70
2019-04-24T06:01:54.800Z,3.40
2019-04-24T06:04:24.778Z,3.07
2019-04-24T06:07:05.824Z,3.33
2019-04-24T06:09:45.356Z,2.80
2019-04-24T06:15:24.000Z,3.40
2019-04-24T06:18:17.310Z,3.47
2019-04-24T06:23:09.227Z,3.60
2019-04-24T06:25:56.481Z,4.23
2019-04-24T06:28:03.119Z,4.27
2019-04-24T06:30:43.702Z,4.40
2019-04-24T06:32:53.615Z,4.70
2019-04-24T06:38:33.731Z,4.60
2019-04-24T06:41:13.303Z,4.60
2019-04-24T06:44:05.767Z,4.13
2019-04-24T06:46:35.567Z,4.10
2019-04-24T06:51:37.244Z,3.40
2019-04-24T06:54:11.397Z,3.10
2019-04-24T06:59:21.585Z,3.20
2019-04-24T07:01:59.706Z,4.10
2019-04-24T07:07:27.622Z,3.93
2019-04-24T07:10:44.498Z,4.90
2019-04-24T07:13:25.617Z,4.17
2019-04-24T07:15:58.330Z,5.60
2019-04-24T07:18:27.471Z,4.40
2019-04-24T07:23:45.093Z,6.03
2019-04-24T07:26:10.963Z,5.70
2019-04-24T07:31:54.105Z,4.97
2019-04-24T07:34:30.131Z,6.00
2019-04-24T07:37:10.700Z,5.27
2019-04-24T07:39:50.410Z,5.87
2019-04-24T07:42:12.517Z,5.50
2019-04-24T07:44:53.930Z,6.27
2019-04-24T07:47:25.245Z,5.50
2019-04-24T07:49:58.643Z,5.33
2019-04-24T07:54:59.580Z,5.17
2019-04-24T07:57:24.994Z,4.97
2019-04-24T08:13:24.145Z,5.70
2019-04-24T08:15:59.869Z,5.50
2019-04-24T08:18:28.109Z,5.70
2019-04-24T08:28:49.137Z,5.57
2019-04-24T08:31:35.005Z,5.80
2019-04-24T08:39:27.172Z,5.50
2019-04-24T08:44:41.582Z,5.10
2019-04-24T08:47:09.093Z,5.20
2019-04-24T08:49:46.266Z,4.60
2019-04-24T08:52:27.357Z,5.00
2019-04-24T08:54:44.517Z,5.07
2019-04-24T08:57:47.717Z,5.70
2019-04-24T09:05:24.838Z,6.20
2019-04-24T09:13:50.371Z,6.10
2019-04-24T09:16:23.841Z,6.83
2019-04-24T09:21:09.878Z,5.27
2019-04-24T09:24:25.801Z,6.07
2019-04-24T09:26:54.354Z,6.20
2019-04-24T09:29:08.578Z,5.70
2019-04-24T09:34:02.281Z,6.10
2019-04-24T09:40:04.730Z,5.50
2019-04-24T09:44:48.650Z,5.13
2019-04-24T09:49:55.580Z,5.10
2019-04-24T09:52:29.154Z,5.60
2019-04-24T09:57:34.499Z,6.00
2019-04-24T09:59:57.480Z,4.90
2019-04-24T10:02:48.930Z,5.03
2019-04-24T10:05:40.587Z,5.20
2019-04-24T10:08:05.630Z,4.47
2019-04-24T10:10:37.777Z,5.10
2019-04-24T10:13:08.066Z,4.70
2019-04-24T10:20:44.539Z,5.50
2019-04-24T10:23:50.157Z,5.07
2019-04-24T10:26:13.419Z,5.50
2019-04-24T10:29:23.593Z,5.07
2019-04-24T10:32:06.166Z,5.20
2019-04-24T10:34:32.007Z,5.33
2019-04-24T10:37:19.820Z,5.50
2019-04-24T10:43:10.601Z,4.10
2019-04-24T10:46:01.293Z,4.43
2019-04-24T10:48:38.771Z,5.10
2019-04-24T10:51:16.825Z,4.63
2019-04-24T10:53:53.757Z,4.80
2019-04-24T10:56:24.451Z,5.10
2019-04-24T10:58:51.396Z,5.30
2019-04-24T11:02:20.589Z,5.97
2019-04-24T11:04:37.701Z,5.00
2019-04-24T11:10:20.759Z,5.53
2019-04-24T11:13:00.454Z,6.30
2019-04-24T11:15:42.327Z,5.87
2019-04-24T11:18:22.626Z,5.70
2019-04-24T11:21:39.581Z,6.50
2019-04-24T11:23:44.120Z,5.90
2019-04-24T11:29:07.610Z,6.10
2019-04-24T11:32:14.320Z,5.10
2019-04-24T11:37:47.073Z,6.43
2019-04-24T11:40:46.554Z,6.70
2019-04-24T11:43:25.726Z,6.10
2019-04-24T11:46:22.644Z,6.97
2019-04-24T11:49:12.378Z,6.10
2019-04-24T11:51:53.814Z,6.07
2019-04-24T11:54:22.930Z,5.87
2019-04-24T11:59:24.569Z,5.53
2019-04-24T12:05:25.801Z,6.07
2019-04-24T12:07:59.976Z,5.40
2019-04-24T12:10:22.391Z,6.90
2019-04-24T12:13:10.516Z,7.00
2019-04-24T12:15:58.880Z,6.30
2019-04-24T12:18:24.702Z,5.93
2019-04-24T12:21:29.438Z,6.57
2019-04-24T12:29:02.578Z,6.57
2019-04-24T12:34:16.546Z,5.97
2019-04-24T12:36:58.298Z,6.17
2019-04-24T12:39:22.404Z,6.50
2019-04-24T12:42:02.086Z,6.53
2019-04-24T12:44:39.395Z,5.97
2019-04-24T12:52:32.468Z,5.37
2019-04-24T12:55:14.724Z,5.40
2019-04-24T12:58:03.486Z,5.37
2019-04-24T13:00:43.435Z,4.50
2019-04-24T13:03:25.702Z,5.60
2019-04-24T13:08:48.559Z,4.90
2019-04-24T13:11:08.203Z,4.50
2019-04-24T13:14:30.953Z,3.90
2019-04-24T13:21:48.476Z,4.63
2019-04-24T13:24:57.803Z,4.60
2019-04-24T13:28:14.478Z,5.00
2019-04-24T13:30:35.994Z,4.17
2019-04-24T13:33:26.997Z,4.37
2019-04-24T13:38:13.461Z,3.90
2019-04-24T13:43:39.639Z,3.73
2019-04-24T13:45:52.983Z,4.80
2019-04-24T13:48:33.712Z,4.53
2019-04-24T13:50:53.415Z,4.80
2019-04-24T13:55:53.930Z,4.60
2019-04-24T13:58:55.264Z,4.83
2019-04-24T14:01:38.362Z,4.40
2019-04-24T14:04:06.900Z,4.30
2019-04-24T14:12:40.651Z,3.90
2019-04-24T14:16:38.626Z,2.53
2019-04-24T14:22:20.304Z,2.20
2019-04-24T14:25:12.838Z,2.07
2019-04-24T14:30:03.541Z,1.97
2019-04-24T14:32:47.803Z,1.70
2019-04-24T14:35:07.645Z,1.83
2019-04-24T14:37:33.159Z,1.43
2019-04-24T14:40:13.682Z,1.40
2019-04-24T14:42:42.261Z,1.67
2019-04-24T14:48:13.418Z,1.40
2019-04-24T14:50:45.752Z,1.53
2019-04-24T14:53:11.121Z,1.77
2019-04-24T14:55:50.237Z,1.40
2019-04-24T14:58:21.556Z,1.53
2019-04-24T15:00:46.932Z,1.80
2019-04-24T15:03:30.882Z,1.87
2019-04-24T15:06:19.890Z,1.60
2019-04-24T15:08:47.971Z,1.80
2019-04-24T15:11:21.659Z,1.50
2019-04-24T15:13:55.099Z,1.33
2019-04-24T15:19:13.752Z,1.33
2019-04-24T15:22:06.467Z,1.57
2019-04-24T15:24:41.641Z,1.63
2019-04-24T15:27:06.663Z,1.83
2019-04-24T15:29:44.657Z,1.77
2019-04-24T15:34:49.770Z,1.50
2019-04-24T15:37:27.331Z,1.60
2019-04-24T15:40:14.134Z,2.07
2019-04-24T15:42:15.523Z,1.67
2019-04-24T15:45:01.059Z,1.47
2019-04-24T15:47:47.437Z,1.60
2019-04-24T15:50:00.484Z,1.77
2019-04-24T15:52:02.233Z,2.10
2019-04-24T15:54:28.913Z,1.80
2019-04-24T15:56:57.876Z,3.10
2019-04-24T15:59:53.834Z,1.70
2019-04-24T16:02:27.302Z,1.50
2019-04-24T16:04:54.032Z,1.23
2019-04-24T16:07:16.156Z,1.50
2019-04-24T16:09:49.603Z,1.73
2019-04-24T16:12:18.813Z,1.50
2019-04-24T16:15:17.417Z,1.60
2019-04-24T16:18:03.039Z,1.33
2019-04-24T16:20:20.823Z,1.57
2019-04-24T16:22:53.842Z,1.23
2019-04-24T16:25:28.705Z,1.70
2019-04-24T16:30:21.204Z,1.83
2019-04-24T16:38:12.835Z,1.50
2019-04-24T16:40:51.026Z,1.30
2019-04-24T16:46:32.463Z,1.60
2019-04-24T16:51:18.089Z,1.40
2019-04-24T16:53:39.840Z,2.63
2019-04-24T16:56:06.849Z,2.80
2019-04-24T16:58:44.520Z,2.73
2019-04-24T17:04:20.053Z,2.20
2019-04-24T17:11:29.793Z,2.10
2019-04-24T17:14:15.071Z,2.00
2019-04-24T17:17:24.753Z,2.70
2019-04-24T17:24:17.077Z,2.00
2019-04-24T17:26:53.456Z,1.77
2019-04-24T17:29:27.377Z,1.70
2019-04-24T17:31:48.767Z,1.87
2019-04-24T17:34:47.997Z,1.90
2019-04-24T17:36:30.831Z,1.77
2019-04-24T17:39:25.458Z,1.83
2019-04-24T17:42:02.080Z,2.37
2019-04-24T17:44:57.911Z,1.40
2019-04-24T17:50:14.996Z,1.40
2019-04-24T17:52:46.841Z,1.30
2019-04-24T17:54:55.268Z,1.60
2019-04-24T17:57:24.998Z,1.53
2019-04-24T17:59:33.125Z,2.00
2019-04-24T18:02:04.199Z,1.73
2019-04-24T18:04:33.232Z,1.37
2019-04-24T18:07:03.126Z,1.30
2019-04-24T18:09:32.861Z,1.30
2019-04-24T18:12:02.244Z,1.20
2019-04-24T18:14:33.475Z,1.00
2019-04-24T18:17:02.908Z,1.33
2019-04-24T18:19:31.969Z,1.07
2019-04-24T18:22:03.450Z,1.27
2019-04-24T18:24:54.681Z,1.10
2019-04-24T18:27:25.861Z,1.00
2019-04-24T18:29:55.950Z,0.93
2019-04-24T18:32:26.641Z,1.10
2019-04-24T18:34:55.673Z,1.40
2019-04-24T18:37:27.849Z,0.80
2019-04-24T18:39:56.729Z,0.80
2019-04-24T18:42:25.825Z,1.00
2019-04-24T18:44:54.813Z,1.00
2019-04-24T18:47:23.910Z,1.00
2019-04-24T18:49:53.043Z,0.80
2019-04-24T18:52:28.041Z,1.00
2019-04-24T18:54:57.045Z,1.00
2019-04-24T18:57:28.157Z,1.13
2019-04-24T19:00:03.419Z,0.90
2019-04-24T19:02:32.445Z,0.90
2019-04-24T19:05:02.017Z,1.00
2019-04-24T19:07:31.578Z,1.00
2019-04-24T19:10:01.306Z,1.00
2019-04-24T19:12:31.447Z,1.00
2019-04-24T19:15:02.460Z,1.20
2019-04-24T19:17:31.418Z,1.00
2019-04-24T19:20:01.199Z,0.73
2019-04-24T19:22:33.324Z,1.00
2019-04-24T19:25:04.660Z,1.07
2019-04-24T19:27:34.795Z,1.70
2019-04-24T19:30:06.654Z,1.10
2019-04-24T19:32:35.886Z,1.23
2019-04-24T19:35:05.201Z,1.00
2019-04-24T19:37:35.061Z,1.10
2019-04-24T19:40:05.826Z,1.00
2019-04-24T19:42:35.851Z,1.00
2019-04-24T19:45:05.347Z,0.90
2019-04-24T19:47:38.823Z,0.97
2019-04-24T19:50:08.075Z,1.00
2019-04-24T19:52:38.386Z,0.80
2019-04-24T19:55:08.397Z,1.00
2019-04-24T19:57:37.383Z,1.00
2019-04-24T20:00:08.386Z,1.07
2019-04-24T20:02:37.493Z,1.00
2019-04-24T20:05:08.562Z,1.00
2019-04-24T20:07:38.571Z,1.00
2019-04-24T20:10:32.897Z,1.30
2019-04-24T20:13:02.766Z,0.80
2019-04-24T20:15:33.109Z,0.70
2019-04-24T20:18:04.204Z,0.90
2019-04-24T20:20:34.154Z,0.90
2019-04-24T20:23:08.628Z,1.03
2019-04-24T20:25:37.745Z,0.93
2019-04-24T20:28:07.094Z,1.00
2019-04-24T20:30:36.129Z,0.80
2019-04-24T20:33:05.245Z,1.10
2019-04-24T20:35:34.343Z,1.10
2019-04-24T20:38:03.668Z,0.90
2019-04-24T20:40:32.672Z,1.10
2019-04-24T20:43:06.122Z,1.00
2019-04-24T20:45:35.292Z,1.47
2019-04-24T20:48:04.404Z,1.00
2019-04-24T20:50:33.513Z,1.03
2019-04-24T20:53:03.711Z,0.93
2019-04-24T20:55:32.825Z,1.30
2019-04-24T20:58:02.994Z,1.77
2019-04-24T21:00:32.098Z,1.20
2019-04-24T21:03:02.927Z,1.10
2019-04-24T21:06:02.204Z,1.23
2019-04-24T21:09:16.827Z,1.30
2019-04-24T21:11:36.545Z,1.10
2019-04-24T21:14:06.718Z,1.10
2019-04-24T21:16:35.660Z,1.30
2019-04-24T21:19:05.764Z,1.10
2019-04-24T21:21:34.857Z,1.00
2019-04-24T21:24:03.962Z,1.20
2019-04-24T21:26:33.037Z,0.90
2019-04-24T21:29:04.085Z,1.03
2019-04-24T21:31:33.176Z,1.10
2019-04-24T21:34:09.055Z,1.10
2019-04-24T21:36:38.138Z,1.17
2019-04-24T21:39:08.422Z,1.23
2019-04-24T21:41:37.486Z,1.10
2019-04-24T21:44:08.584Z,0.93
2019-04-24T21:46:37.622Z,1.10
2019-04-24T21:49:06.663Z,0.90
2019-04-24T21:51:35.709Z,0.90
2019-04-24T21:54:05.136Z,0.90
2019-04-24T21:56:34.203Z,1.20
2019-04-24T21:59:09.097Z,1.03
2019-04-24T22:02:12.642Z,1.40
2019-04-24T22:04:53.212Z,1.00
2019-04-24T22:07:28.645Z,1.00
2019-04-24T22:09:57.689Z,0.97
2019-04-24T22:12:26.886Z,0.90
2019-04-24T22:14:56.426Z,1.17
2019-04-24T22:17:25.808Z,1.23
2019-04-24T22:19:55.966Z,1.10
2019-04-24T22:22:55.607Z,1.00
2019-04-24T22:25:44.521Z,1.10
2019-04-24T22:28:16.449Z,0.93
2019-04-24T22:31:16.412Z,1.00
2019-04-24T22:33:51.480Z,1.10
2019-04-24T22:36:21.945Z,1.13
2019-04-24T22:39:18.645Z,1.00
2019-04-24T22:41:49.726Z,1.07
2019-04-24T22:44:18.810Z,1.00
2019-04-24T22:46:53.963Z,1.00
2019-04-24T22:49:22.970Z,0.90
2019-04-24T22:51:52.174Z,0.97
2019-04-24T22:54:28.872Z,0.93
2019-04-24T22:56:58.402Z,1.00
2019-04-24T22:59:22.785Z,1.17
2019-04-24T23:01:59.722Z,1.10
2019-04-24T23:04:23.724Z,1.20
2019-04-24T23:06:52.757Z,1.40
2019-04-24T23:09:24.340Z,1.10
2019-04-24T23:11:54.426Z,1.20
2019-04-24T23:14:24.624Z,1.00
2019-04-24T23:16:55.703Z,1.03
2019-04-24T23:19:24.697Z,0.90
2019-04-24T23:22:02.232Z,1.00
2019-04-24T23:24:48.006Z,1.30
2019-04-24T23:27:28.726Z,1.10
2019-04-24T23:30:02.797Z,0.80
2019-04-24T23:32:37.099Z,1.00
2019-04-24T23:35:07.077Z,1.20
2019-04-24T23:37:36.170Z,1.13
2019-04-24T23:40:06.915Z,1.20
2019-04-24T23:42:36.125Z,0.90
2019-04-24T23:45:07.002Z,1.03
2019-04-24T23:47:37.660Z,1.00
2019-04-24T23:50:06.798Z,0.80
2019-04-24T23:52:36.046Z,0.90
2019-04-24T23:55:07.420Z,1.13
2019-04-24T23:57:38.560Z,1.00
